createdAt,value
2023-05-14T00:01:54.061Z,14.99
2023-05-14T00:04:39.631Z,14.98
2023-05-14T00:07:31.895Z,14.86
2023-05-14T00:10:18.948Z,15.40
2023-05-14T00:13:04.495Z,15.49
2023-05-14T00:15:49.376Z,15.43
2023-05-14T00:18:34.646Z,15.21
2023-05-14T00:21:19.371Z,15.12
2023-05-14T00:24:04.670Z,15.25
2023-05-14T00:26:49.767Z,15.34
2023-05-14T00:29:35.017Z,15.13
2023-05-14T00:32:20.086Z,15.14
2023-05-14T00:35:05.660Z,15.01
2023-05-14T00:37:50.874Z,15.23
2023-05-14T00:40:36.306Z,14.73
2023-05-14T00:43:22.556Z,15.14
2023-05-14T00:46:07.850Z,15.14
2023-05-14T00:48:53.692Z,14.85
2023-05-14T00:51:42.354Z,14.87
2023-05-14T00:54:28.030Z,14.77
2023-05-14T00:57:13.363Z,14.16
2023-05-14T00:59:59.438Z,14.67
2023-05-14T01:02:44.654Z,14.66
2023-05-14T01:05:41.223Z,14.76
2023-05-14T01:08:32.793Z,14.51
2023-05-14T01:11:24.613Z,14.66
2023-05-14T01:14:42.195Z,14.59
2023-05-14T01:17:30.322Z,14.46
2023-05-14T01:20:16.210Z,14.67
2023-05-14T01:23:01.599Z,14.58
2023-05-14T01:25:46.636Z,14.76
2023-05-14T01:28:36.622Z,14.72
2023-05-14T01:31:27.822Z,14.94
2023-05-14T01:34:14.563Z,14.82
2023-05-14T01:37:00.572Z,14.79
2023-05-14T01:39:46.789Z,14.98
2023-05-14T01:42:32.208Z,14.97
2023-05-14T01:45:20.304Z,14.92
2023-05-14T01:48:05.769Z,14.88
2023-05-14T01:50:51.346Z,14.63
2023-05-14T01:53:36.256Z,14.55
2023-05-14T01:56:23.653Z,14.78
2023-05-14T01:59:08.497Z,14.33
2023-05-14T02:01:53.509Z,14.08
2023-05-14T02:04:38.522Z,13.45
2023-05-14T02:07:23.422Z,14.42
2023-05-14T02:10:09.290Z,14.52
2023-05-14T02:12:54.465Z,14.40
2023-05-14T02:15:39.670Z,14.68
2023-05-14T02:18:25.766Z,14.67
2023-05-14T02:21:10.887Z,14.43
2023-05-14T02:23:56.269Z,14.32
2023-05-14T02:26:42.075Z,14.54
2023-05-14T02:29:27.783Z,14.57
2023-05-14T02:32:13.147Z,14.66
2023-05-14T02:34:58.572Z,14.51
2023-05-14T02:37:43.421Z,14.67
2023-05-14T02:40:28.466Z,14.69
2023-05-14T02:43:13.296Z,14.73
2023-05-14T02:45:58.208Z,14.52
2023-05-14T02:48:43.160Z,14.72
2023-05-14T02:51:28.516Z,14.09
2023-05-14T02:54:13.342Z,14.20
2023-05-14T02:56:58.173Z,14.12
2023-05-14T02:59:42.953Z,14.32
2023-05-14T03:02:28.294Z,14.14
2023-05-14T03:05:14.249Z,14.11
2023-05-14T03:08:00.840Z,14.40
2023-05-14T03:10:45.873Z,14.69
2023-05-14T03:13:31.028Z,14.74
2023-05-14T03:16:15.914Z,14.20
2023-05-14T03:19:00.825Z,14.59
2023-05-14T03:21:46.171Z,14.09
2023-05-14T03:24:31.617Z,14.41
2023-05-14T03:27:16.988Z,14.55
2023-05-14T03:30:03.130Z,14.52
2023-05-14T03:32:48.053Z,14.48
2023-05-14T03:35:33.141Z,14.63
2023-05-14T03:38:18.072Z,14.55
2023-05-14T03:41:03.393Z,14.56
2023-05-14T03:43:48.317Z,14.32
2023-05-14T03:46:33.204Z,14.47
2023-05-14T03:49:18.980Z,14.51
2023-05-14T03:52:04.070Z,14.64
2023-05-14T03:54:49.223Z,14.47
2023-05-14T03:57:34.226Z,14.64
2023-05-14T04:00:19.302Z,14.72
2023-05-14T04:03:04.430Z,14.57
2023-05-14T04:05:51.152Z,14.72
2023-05-14T04:08:36.024Z,14.58
2023-05-14T04:11:22.436Z,14.20
2023-05-14T04:14:07.667Z,14.26
2023-05-14T04:16:52.788Z,14.19
2023-05-14T04:19:37.884Z,14.48
2023-05-14T04:22:23.481Z,14.55
2023-05-14T04:25:08.595Z,14.56
2023-05-14T04:27:54.255Z,14.43
2023-05-14T04:30:39.234Z,14.36
2023-05-14T04:33:24.409Z,14.59
2023-05-14T04:36:09.306Z,14.43
2023-05-14T04:38:54.195Z,14.57
2023-05-14T04:41:39.029Z,14.68
2023-05-14T04:44:23.904Z,14.27
2023-05-14T04:47:08.731Z,14.38
2023-05-14T04:49:53.518Z,14.08
2023-05-14T04:52:39.182Z,14.18
2023-05-14T04:55:24.295Z,14.30
2023-05-14T04:58:09.285Z,14.51
2023-05-14T05:00:54.192Z,14.60
2023-05-14T05:03:39.219Z,14.40
2023-05-14T05:06:24.041Z,14.23
2023-05-14T05:09:09.791Z,14.15
2023-05-14T05:11:54.874Z,14.32
2023-05-14T05:14:39.750Z,14.48
2023-05-14T05:17:25.300Z,14.47
2023-05-14T05:20:11.046Z,14.46
2023-05-14T05:22:56.257Z,14.70
2023-05-14T05:25:41.132Z,14.46
2023-05-14T05:28:26.163Z,14.47
2023-05-14T05:31:11.380Z,14.53
2023-05-14T05:33:57.672Z,14.59
2023-05-14T05:36:42.757Z,14.59
2023-05-14T05:39:27.560Z,14.69
2023-05-14T05:42:12.266Z,14.82
2023-05-14T05:44:57.331Z,14.78
2023-05-14T05:47:42.968Z,14.51
2023-05-14T05:50:27.766Z,14.55
2023-05-14T05:53:12.993Z,14.86
2023-05-14T05:55:57.849Z,14.99
2023-05-14T05:58:42.640Z,14.82
2023-05-14T06:01:27.551Z,14.84
2023-05-14T06:04:13.045Z,14.41
2023-05-14T06:06:58.325Z,14.75
2023-05-14T06:09:43.607Z,14.86
2023-05-14T06:12:28.467Z,14.44
2023-05-14T06:15:13.352Z,13.94
2023-05-14T06:17:58.371Z,14.16
2023-05-14T06:20:43.144Z,14.09
2023-05-14T06:23:28.353Z,14.35
2023-05-14T06:26:13.190Z,14.22
2023-05-14T06:28:58.442Z,14.43
2023-05-14T06:31:43.548Z,14.36
2023-05-14T06:34:28.591Z,14.93
2023-05-14T06:37:13.414Z,14.94
2023-05-14T06:39:58.944Z,15.12
2023-05-14T06:42:44.152Z,15.28
2023-05-14T06:45:32.435Z,15.65
2023-05-14T06:48:19.363Z,15.90
2023-05-14T06:51:04.963Z,16.00
2023-05-14T06:53:50.234Z,16.35
2023-05-14T06:56:35.352Z,16.81
2023-05-14T06:59:21.865Z,16.78
2023-05-14T07:02:07.240Z,16.79
2023-05-14T07:04:52.429Z,16.97
2023-05-14T07:07:37.641Z,17.18
2023-05-14T07:10:22.952Z,17.09
2023-05-14T07:13:08.493Z,17.23
2023-05-14T07:15:55.923Z,17.42
2023-05-14T07:18:41.474Z,17.54
2023-05-14T07:21:26.317Z,17.65
2023-05-14T07:24:11.086Z,17.72
2023-05-14T07:26:57.183Z,17.90
2023-05-14T07:29:42.890Z,17.93
2023-05-14T07:32:28.148Z,17.95
2023-05-14T07:35:14.325Z,17.96
2023-05-14T07:37:59.602Z,18.10
2023-05-14T07:40:45.338Z,18.17
2023-05-14T07:43:30.113Z,18.40
2023-05-14T07:46:15.110Z,18.13
2023-05-14T07:48:59.878Z,18.34
2023-05-14T07:51:46.903Z,18.59
2023-05-14T07:54:32.160Z,18.61
2023-05-14T07:57:17.494Z,18.83
2023-05-14T08:00:02.615Z,19.02
2023-05-14T08:02:49.192Z,19.09
2023-05-14T08:05:34.303Z,19.09
2023-05-14T08:08:19.227Z,19.15
2023-05-14T08:11:04.814Z,19.15
2023-05-14T08:13:49.929Z,19.18
2023-05-14T08:16:34.773Z,19.46
2023-05-14T08:19:20.143Z,19.36
2023-05-14T08:22:07.657Z,19.70
2023-05-14T08:24:52.982Z,19.59
2023-05-14T08:27:37.875Z,19.98
2023-05-14T08:30:23.567Z,20.46
2023-05-14T08:33:08.591Z,20.45
2023-05-14T08:35:53.969Z,20.63
2023-05-14T08:38:38.902Z,20.59
2023-05-14T08:41:24.151Z,20.43
2023-05-14T08:44:19.200Z,20.37
2023-05-14T08:47:05.132Z,20.93
2023-05-14T08:50:04.555Z,20.85
2023-05-14T08:52:52.233Z,20.97
2023-05-14T08:55:38.568Z,20.88
2023-05-14T08:58:26.824Z,20.97
2023-05-14T09:01:14.640Z,20.96
2023-05-14T09:04:01.461Z,20.96
2023-05-14T09:06:53.797Z,21.24
2023-05-14T09:09:39.972Z,21.07
2023-05-14T09:12:25.283Z,20.74
2023-05-14T09:15:10.908Z,20.69
2023-05-14T09:17:57.000Z,20.28
2023-05-14T09:20:42.123Z,20.43
2023-05-14T09:23:27.851Z,20.72
2023-05-14T09:26:17.072Z,20.72
2023-05-14T09:29:03.192Z,20.75
2023-05-14T09:31:52.021Z,21.04
2023-05-14T09:34:37.947Z,21.32
2023-05-14T09:37:26.268Z,21.41
2023-05-14T09:40:13.113Z,21.82
2023-05-14T09:42:58.753Z,21.96
2023-05-14T09:45:43.970Z,22.31
2023-05-14T09:48:29.931Z,22.45
2023-05-14T09:51:17.761Z,21.64
2023-05-14T09:54:04.536Z,21.48
2023-05-14T09:56:49.737Z,21.50
2023-05-14T09:59:35.864Z,21.77
2023-05-14T10:02:25.582Z,22.05
2023-05-14T10:05:12.997Z,22.15
2023-05-14T10:08:00.535Z,22.38
2023-05-14T10:10:45.832Z,22.25
2023-05-14T10:13:38.185Z,22.60
2023-05-14T10:16:34.269Z,22.30
2023-05-14T10:19:22.937Z,22.12
2023-05-14T10:22:12.659Z,22.25
2023-05-14T10:24:58.324Z,22.43
2023-05-14T10:27:43.803Z,22.03
2023-05-14T10:30:28.784Z,22.29
2023-05-14T10:33:16.419Z,22.41
2023-05-14T10:36:05.630Z,22.18
2023-05-14T10:38:56.992Z,22.03
2023-05-14T10:41:42.673Z,22.22
2023-05-14T10:44:28.023Z,22.25
2023-05-14T10:47:13.968Z,22.27
2023-05-14T10:50:02.483Z,22.72
2023-05-14T10:52:49.109Z,22.82
2023-05-14T10:55:36.008Z,23.33
2023-05-14T10:58:24.288Z,22.88
2023-05-14T11:01:10.803Z,22.99
2023-05-14T11:03:58.496Z,23.04
2023-05-14T11:06:45.251Z,23.15
2023-05-14T11:09:30.425Z,23.17
2023-05-14T11:12:17.022Z,22.81
2023-05-14T11:15:05.768Z,22.96
2023-05-14T11:17:51.692Z,23.21
2023-05-14T11:20:37.493Z,23.20
2023-05-14T11:23:25.205Z,22.97
2023-05-14T11:26:11.397Z,23.13
2023-05-14T11:28:56.255Z,23.07
2023-05-14T11:31:42.639Z,22.77
2023-05-14T11:34:29.321Z,22.75
2023-05-14T11:37:15.007Z,22.74
2023-05-14T11:40:01.329Z,22.70
2023-05-14T11:42:46.386Z,22.40
2023-05-14T11:45:33.308Z,22.13
2023-05-14T11:48:19.046Z,22.09
2023-05-14T11:51:04.549Z,21.73
2023-05-14T11:53:49.814Z,21.47
2023-05-14T11:56:35.093Z,21.29
2023-05-14T11:59:20.300Z,21.35
2023-05-14T12:02:08.354Z,21.30
2023-05-14T12:04:53.836Z,21.03
2023-05-14T12:07:39.817Z,20.99
2023-05-14T12:10:25.756Z,20.92
2023-05-14T12:13:14.816Z,20.98
2023-05-14T12:16:02.336Z,20.93
2023-05-14T12:18:49.127Z,20.85
2023-05-14T12:21:36.187Z,20.65
2023-05-14T12:24:21.350Z,20.53
2023-05-14T12:27:07.911Z,20.56
2023-05-14T12:32:55.403Z,20.78
2023-05-14T12:35:41.041Z,21.16
2023-05-14T12:38:26.178Z,21.96
2023-05-14T12:41:11.567Z,22.26
2023-05-14T12:43:59.032Z,22.69
2023-05-14T12:46:44.261Z,23.20
2023-05-14T12:49:29.409Z,23.48
2023-05-14T12:52:22.692Z,23.57
2023-05-14T12:55:18.182Z,24.15
2023-05-14T12:58:03.306Z,24.20
2023-05-14T13:00:48.171Z,24.11
2023-05-14T13:03:34.247Z,24.52
2023-05-14T13:06:29.893Z,24.63
2023-05-14T13:09:15.127Z,24.58
2023-05-14T13:12:00.623Z,24.73
2023-05-14T13:14:45.599Z,24.68
2023-05-14T13:17:30.614Z,24.32
2023-05-14T13:20:17.668Z,24.34
2023-05-14T13:23:02.831Z,24.23
2023-05-14T13:25:49.728Z,23.85
2023-05-14T13:28:35.190Z,23.61
2023-05-14T13:31:20.520Z,23.85
2023-05-14T13:34:06.028Z,24.31
2023-05-14T13:36:51.011Z,24.38
2023-05-14T13:39:36.506Z,24.26
2023-05-14T13:42:21.741Z,24.67
2023-05-14T13:45:07.655Z,24.40
2023-05-14T13:47:53.326Z,24.13
2023-05-14T13:50:38.439Z,23.56
2023-05-14T13:53:24.498Z,23.39
2023-05-14T13:56:09.536Z,23.79
2023-05-14T13:58:56.168Z,24.05
2023-05-14T14:01:43.142Z,24.12
2023-05-14T14:04:28.978Z,24.49
2023-05-14T14:07:14.162Z,24.60
2023-05-14T14:10:01.744Z,24.60
2023-05-14T14:12:46.653Z,24.67
2023-05-14T14:15:31.832Z,24.08
2023-05-14T14:18:19.271Z,23.25
2023-05-14T14:21:04.673Z,23.72
2023-05-14T14:23:49.874Z,23.90
2023-05-14T14:26:34.737Z,24.10
2023-05-14T14:29:21.751Z,24.47
2023-05-14T14:32:07.819Z,24.62
2023-05-14T14:34:56.307Z,24.86
2023-05-14T14:37:43.281Z,24.85
2023-05-14T14:40:28.512Z,25.04
2023-05-14T14:43:13.400Z,25.25
2023-05-14T14:45:59.963Z,25.39
2023-05-14T14:48:45.798Z,25.43
2023-05-14T14:51:31.255Z,25.02
2023-05-14T14:54:16.216Z,24.71
2023-05-14T14:57:01.397Z,23.95
2023-05-14T14:59:46.844Z,23.04
2023-05-14T15:02:31.907Z,22.51
2023-05-14T15:05:17.096Z,22.22
2023-05-14T15:08:02.010Z,22.25
2023-05-14T15:10:47.345Z,22.32
2023-05-14T15:13:32.755Z,23.07
2023-05-14T15:16:17.922Z,23.43
2023-05-14T15:19:02.688Z,23.74
2023-05-14T15:21:47.929Z,23.59
2023-05-14T15:24:47.142Z,23.23
2023-05-14T15:27:36.715Z,22.82
2023-05-14T15:33:27.767Z,22.40
2023-05-14T15:36:13.405Z,21.98
2023-05-14T15:38:59.576Z,21.87
2023-05-14T15:41:45.512Z,21.84
2023-05-14T15:44:30.898Z,22.44
2023-05-14T15:47:15.963Z,22.95
2023-05-14T15:50:01.084Z,23.38
2023-05-14T15:52:47.557Z,23.46
2023-05-14T15:55:34.784Z,23.48
2023-05-14T15:58:19.896Z,23.55
2023-05-14T16:01:05.629Z,23.31
2023-05-14T16:03:52.315Z,22.85
2023-05-14T16:06:41.378Z,22.40
2023-05-14T16:09:26.658Z,22.33
2023-05-14T16:12:13.621Z,22.24
2023-05-14T16:14:59.831Z,22.32
2023-05-14T16:17:44.906Z,22.50
2023-05-14T16:20:29.852Z,22.72
2023-05-14T16:23:14.653Z,23.06
2023-05-14T16:25:59.889Z,23.11
2023-05-14T16:28:45.198Z,22.72
2023-05-14T16:31:31.483Z,22.56
2023-05-14T16:34:16.638Z,22.43
2023-05-14T16:37:02.265Z,21.96
2023-05-14T16:39:47.732Z,22.22
2023-05-14T16:42:32.788Z,22.36
2023-05-14T16:45:18.063Z,22.34
2023-05-14T16:48:04.332Z,22.42
2023-05-14T16:50:49.873Z,22.27
2023-05-14T16:53:34.818Z,22.09
2023-05-14T16:56:19.613Z,21.91
2023-05-14T16:59:04.591Z,21.75
2023-05-14T17:01:50.059Z,21.67
2023-05-14T17:04:38.872Z,21.91
2023-05-14T17:07:24.638Z,21.94
2023-05-14T17:10:09.866Z,21.87
2023-05-14T17:12:55.435Z,21.65
2023-05-14T17:15:42.365Z,21.79
2023-05-14T17:18:27.715Z,21.44
2023-05-14T17:21:13.702Z,21.30
2023-05-14T17:23:59.491Z,21.25
2023-05-14T17:26:45.070Z,21.19
2023-05-14T17:29:29.977Z,21.11
2023-05-14T17:32:15.331Z,20.98
2023-05-14T17:35:00.723Z,21.14
2023-05-14T17:37:45.811Z,21.04
2023-05-14T17:40:30.802Z,21.21
2023-05-14T17:43:15.788Z,21.17
2023-05-14T17:46:01.205Z,21.08
2023-05-14T17:48:47.425Z,20.90
2023-05-14T17:51:32.386Z,21.04
2023-05-14T17:54:25.120Z,20.78
2023-05-14T17:57:10.652Z,20.89
2023-05-14T17:59:55.893Z,20.81
2023-05-14T18:02:42.198Z,20.78
2023-05-14T18:05:28.944Z,20.68
2023-05-14T18:08:17.328Z,20.70
2023-05-14T18:11:02.420Z,20.71
2023-05-14T18:13:47.381Z,20.65
2023-05-14T18:16:32.399Z,20.60
2023-05-14T18:19:19.376Z,20.76
2023-05-14T18:22:04.678Z,20.58
2023-05-14T18:24:49.753Z,20.34
2023-05-14T18:27:35.031Z,20.18
2023-05-14T18:30:20.034Z,20.09
2023-05-14T18:33:07.998Z,19.83
2023-05-14T18:35:54.550Z,19.68
2023-05-14T18:38:41.175Z,19.61
2023-05-14T18:41:26.667Z,19.60
2023-05-14T18:44:11.720Z,19.42
2023-05-14T18:46:57.115Z,19.43
2023-05-14T18:49:43.230Z,19.33
2023-05-14T18:52:31.959Z,19.25
2023-05-14T18:55:17.172Z,19.05
2023-05-14T18:58:03.669Z,18.99
2023-05-14T19:00:48.567Z,18.90
2023-05-14T19:03:38.583Z,18.76
2023-05-14T19:06:25.895Z,19.03
2023-05-14T19:09:10.885Z,18.80
2023-05-14T19:11:55.811Z,18.73
2023-05-14T19:14:43.760Z,18.55
2023-05-14T19:17:32.677Z,18.63
2023-05-14T19:20:17.916Z,18.53
2023-05-14T19:23:03.157Z,18.56
2023-05-14T19:25:50.343Z,18.42
2023-05-14T19:28:37.813Z,18.52
2023-05-14T19:31:25.134Z,18.34
2023-05-14T19:34:10.390Z,18.38
2023-05-14T19:36:57.623Z,18.22
2023-05-14T19:39:46.317Z,18.04
2023-05-14T19:42:31.934Z,18.12
2023-05-14T19:45:20.304Z,18.01
2023-05-14T19:48:06.390Z,17.96
2023-05-14T19:50:52.711Z,18.04
2023-05-14T19:53:44.396Z,18.10
2023-05-14T19:56:30.651Z,18.10
2023-05-14T19:59:15.942Z,18.07
2023-05-14T20:02:01.718Z,17.88
2023-05-14T20:04:47.559Z,17.91
2023-05-14T20:07:33.306Z,17.97
2023-05-14T20:10:21.798Z,17.87
2023-05-14T20:13:10.156Z,17.74
2023-05-14T20:15:55.842Z,17.75
2023-05-14T20:18:43.483Z,17.76
2023-05-14T20:21:29.973Z,17.68
2023-05-14T20:24:16.264Z,17.65
2023-05-14T20:27:01.909Z,17.52
2023-05-14T20:29:46.987Z,17.60
2023-05-14T20:32:33.294Z,17.57
2023-05-14T20:35:19.021Z,17.50
2023-05-14T20:38:04.097Z,17.55
2023-05-14T20:40:49.297Z,17.57
2023-05-14T20:43:34.246Z,17.49
2023-05-14T20:46:21.357Z,17.31
2023-05-14T20:49:06.315Z,17.08
2023-05-14T20:51:51.210Z,17.07
2023-05-14T20:54:36.734Z,16.91
2023-05-14T20:57:24.756Z,17.06
2023-05-14T21:00:12.417Z,16.93
2023-05-14T21:02:59.916Z,16.88
2023-05-14T21:05:45.093Z,16.89
2023-05-14T21:08:33.037Z,16.97
2023-05-14T21:11:18.723Z,16.82
2023-05-14T21:14:04.679Z,16.75
2023-05-14T21:16:50.076Z,16.98
2023-05-14T21:19:34.840Z,16.76
2023-05-14T21:22:22.498Z,16.79
2023-05-14T21:25:07.532Z,16.74
2023-05-14T21:27:52.662Z,16.63
2023-05-14T21:30:37.596Z,16.58
2023-05-14T21:33:23.945Z,16.68
2023-05-14T21:36:09.708Z,16.68
2023-05-14T21:38:55.092Z,16.66
2023-05-14T21:41:40.889Z,16.69
2023-05-14T21:44:26.003Z,16.82
2023-05-14T21:47:11.367Z,16.80
2023-05-14T21:49:56.339Z,16.72
2023-05-14T21:52:41.483Z,16.60
2023-05-14T21:55:27.680Z,16.41
2023-05-14T21:58:12.905Z,16.53
2023-05-14T22:00:59.843Z,16.55
2023-05-14T22:03:44.976Z,16.34
2023-05-14T22:06:30.827Z,16.56
2023-05-14T22:09:15.840Z,16.23
2023-05-14T22:12:03.061Z,16.19
2023-05-14T22:14:47.889Z,16.08
2023-05-14T22:17:34.892Z,15.97
2023-05-14T22:20:19.753Z,15.85
2023-05-14T22:23:04.945Z,15.95
2023-05-14T22:25:49.753Z,15.93
2023-05-14T22:28:34.622Z,15.99
2023-05-14T22:31:19.912Z,15.99
2023-05-14T22:34:05.282Z,16.17
2023-05-14T22:36:50.209Z,15.90
2023-05-14T22:39:35.027Z,15.77
2023-05-14T22:42:20.630Z,16.01
2023-05-14T22:45:05.955Z,15.91
2023-05-14T22:47:51.380Z,16.05
2023-05-14T22:50:37.029Z,15.86
2023-05-14T22:53:21.878Z,15.84
2023-05-14T22:56:07.055Z,16.09
2023-05-14T22:58:52.133Z,16.06
2023-05-14T23:01:37.510Z,16.17
2023-05-14T23:04:23.002Z,16.11
2023-05-14T23:07:07.934Z,16.14
2023-05-14T23:09:53.091Z,16.13
2023-05-14T23:12:37.900Z,16.25
2023-05-14T23:15:22.816Z,16.25
2023-05-14T23:18:08.592Z,16.01
2023-05-14T23:20:53.425Z,16.27
2023-05-14T23:23:38.609Z,16.10
2023-05-14T23:26:23.614Z,15.93
2023-05-14T23:29:09.318Z,15.75
2023-05-14T23:31:54.002Z,15.70
2023-05-14T23:34:39.284Z,15.46
2023-05-14T23:37:24.407Z,15.59
2023-05-14T23:40:09.992Z,15.58
2023-05-14T23:42:54.712Z,15.62
2023-05-14T23:45:39.952Z,15.53
2023-05-14T23:48:25.676Z,15.64
2023-05-14T23:51:10.438Z,15.75
2023-05-14T23:53:58.817Z,15.88
2023-05-14T23:56:44.309Z,15.77
2023-05-14T23:59:29.876Z,15.91
